Time;durP1;ratioP1;P1;durP2;ratioP2;P2;SDS_P1;SDS_P2;PMS_P1;PMS_P2;Temp;Humidity;BMP_temperature;BMP_pressure;BME280_temperature;BME280_humidity;BME280_pressure;Samples;Min_cycle;Max_cycle;Signal;HPM_P1;HPM_P2
2023/10/20 00:02:02;;;;;;;35.05;18.83;;;;;;;;;;6034929;23;20171;-94
2023/10/20 00:05:08;;;;;;;37.92;18.50;;;;;;;;;;6033281;23;20171;-92
2023/10/20 00:08:14;;;;;;;40.10;18.35;;;;;;;;;;6034101;23;20259;-92
2023/10/20 00:11:19;;;;;;;37.83;18.67;;;;;;;;;;6034571;23;20167;-91
2023/10/20 00:14:23;;;;;;;37.63;18.55;;;;;;;;;;6034524;23;20174;-94
2023/10/20 00:17:30;;;;;;;35.85;18.52;;;;;;;;;;6036519;23;20272;-92
2023/10/20 00:20:35;;;;;;;35.35;18.10;;;;;;;;;;6034081;23;20603;-91
2023/10/20 00:23:41;;;;;;;33.20;18.45;;;;;;;;;;6035319;23;20155;-92
2023/10/20 00:26:46;;;;;;;35.42;18.92;;;;;;;;;;6035062;23;20615;-91
2023/10/20 00:29:52;;;;;;;32.90;17.95;;;;;;;;;;6051416;23;20155;-94
2023/10/20 00:32:58;;;;;;;37.97;18.50;;;;;;;;;;6052244;23;20166;-93
2023/10/20 00:36:04;;;;;;;33.90;17.40;;;;;;;;;;6035100;23;20179;-93
2023/10/20 00:39:12;;;;;;;36.67;18.85;;;;;;;;;;6035372;23;20239;-93
2023/10/20 00:42:17;;;;;;;35.85;18.70;;;;;;;;;;6051937;23;20171;-91
2023/10/20 00:48:43;;;;;;;30.75;17.40;;;;;;;;;;6054387;23;20171;-92
2023/10/20 00:51:49;;;;;;;34.90;18.85;;;;;;;;;;6053990;23;20510;-93
2023/10/20 00:54:54;;;;;;;37.00;18.55;;;;;;;;;;6037336;23;20198;-93
2023/10/20 00:58:00;;;;;;;36.08;18.38;;;;;;;;;;6050644;23;20195;-90
2023/10/20 01:01:06;;;;;;;35.75;17.67;;;;;;;;;;6036632;23;20179;-91
2023/10/20 01:04:12;;;;;;;34.90;18.23;;;;;;;;;;6034618;23;20787;-92
2023/10/20 01:07:18;;;;;;;39.03;19.02;;;;;;;;;;6051825;23;20251;-90
2023/10/20 01:10:23;;;;;;;45.63;19.20;;;;;;;;;;6035760;23;20216;-93
2023/10/20 01:13:28;;;;;;;32.92;17.80;;;;;;;;;;6036210;23;20615;-90
2023/10/20 01:16:34;;;;;;;31.77;17.77;;;;;;;;;;6035916;23;20222;-92
2023/10/20 01:19:41;;;;;;;33.03;18.70;;;;;;;;;;6052206;23;20170;-91
2023/10/20 01:22:46;;;;;;;39.08;18.23;;;;;;;;;;6053322;23;20168;-93
2023/10/20 01:25:57;;;;;;;41.20;18.42;;;;;;;;;;6055209;23;20236;-93
2023/10/20 01:29:05;;;;;;;36.00;18.60;;;;;;;;;;6038114;23;20171;-90
2023/10/20 01:32:10;;;;;;;35.70;18.35;;;;;;;;;;6053625;23;20619;-95
2023/10/20 01:35:16;;;;;;;35.38;18.52;;;;;;;;;;6053341;23;20170;-94
2023/10/20 01:38:22;;;;;;;39.80;19.02;;;;;;;;;;6037769;23;20220;-93
2023/10/20 01:41:28;;;;;;;37.95;20.08;;;;;;;;;;6037850;23;20607;-92
2023/10/20 01:44:33;;;;;;;35.35;18.48;;;;;;;;;;6052992;23;20223;-93
2023/10/20 01:47:38;;;;;;;34.92;18.67;;;;;;;;;;6053351;23;20255;-96
2023/10/20 01:50:45;;;;;;;39.47;18.70;;;;;;;;;;6036540;23;20167;-91
2023/10/20 01:53:50;;;;;;;38.13;18.42;;;;;;;;;;6041130;23;20265;-95
2023/10/20 01:56:56;;;;;;;41.28;19.13;;;;;;;;;;6055143;23;20198;-91
2023/10/20 02:00:02;;;;;;;36.50;19.50;;;;;;;;;;6039237;23;20208;-93
2023/10/20 02:03:17;;;;;;;37.83;19.48;;;;;;;;;;6056419;23;20175;-92
2023/10/20 02:06:22;;;;;;;35.15;18.77;;;;;;;;;;6057932;23;20209;-93
2023/10/20 02:09:27;;;;;;;37.00;19.48;;;;;;;;;;6057279;23;20179;-93
2023/10/20 02:12:34;;;;;;;43.78;19.98;;;;;;;;;;6056962;23;20208;-93
2023/10/20 02:15:39;;;;;;;34.40;18.98;;;;;;;;;;6038599;23;20168;-93
2023/10/20 02:18:45;;;;;;;34.70;18.38;;;;;;;;;;6038874;23;20194;-94
2023/10/20 02:21:52;;;;;;;35.05;19.02;;;;;;;;;;6040044;23;20228;-93
2023/10/20 02:24:57;;;;;;;38.53;19.02;;;;;;;;;;6039147;23;20511;-91
2023/10/20 02:28:03;;;;;;;38.50;19.75;;;;;;;;;;6038290;23;20167;-92
2023/10/20 02:31:12;;;;;;;39.22;19.13;;;;;;;;;;6037903;23;20179;-92
2023/10/20 02:34:18;;;;;;;34.55;19.15;;;;;;;;;;6055582;23;20175;-91
2023/10/20 02:37:23;;;;;;;35.53;18.83;;;;;;;;;;6040017;23;20194;-95
2023/10/20 02:40:28;;;;;;;39.67;17.90;;;;;;;;;;6054040;23;20221;-91
2023/10/20 02:43:35;;;;;;;34.97;18.70;;;;;;;;;;6038260;23;20193;-93
2023/10/20 02:46:40;;;;;;;36.65;18.58;;;;;;;;;;6037214;23;20148;-93
2023/10/20 02:49:46;;;;;;;39.30;19.30;;;;;;;;;;6035451;23;20154;-91
2023/10/20 02:52:51;;;;;;;34.53;17.65;;;;;;;;;;6037157;23;20164;-93
2023/10/20 02:55:57;;;;;;;39.00;18.80;;;;;;;;;;6037332;23;20167;-93
2023/10/20 02:59:03;;;;;;;39.33;19.25;;;;;;;;;;6038977;23;20630;-93
2023/10/20 03:02:08;;;;;;;36.08;19.30;;;;;;;;;;6038655;23;20342;-94
2023/10/20 03:05:13;;;;;;;38.20;18.83;;;;;;;;;;6039858;23;20248;-91
2023/10/20 03:08:19;;;;;;;40.22;19.45;;;;;;;;;;6055012;23;20229;-93
2023/10/20 03:11:24;;;;;;;36.58;19.35;;;;;;;;;;6038864;23;20627;-93
2023/10/20 03:14:31;;;;;;;36.38;19.30;;;;;;;;;;6037638;23;20171;-91
2023/10/20 03:17:36;;;;;;;39.72;18.95;;;;;;;;;;6037720;23;20194;-91
2023/10/20 03:20:42;;;;;;;38.00;19.15;;;;;;;;;;6053363;23;20497;-94
2023/10/20 03:23:47;;;;;;;32.70;17.40;;;;;;;;;;6036460;23;20187;-92
2023/10/20 03:26:52;;;;;;;37.90;19.25;;;;;;;;;;6036655;23;20175;-95
2023/10/20 03:29:59;;;;;;;36.35;19.08;;;;;;;;;;6036269;23;20174;-91
2023/10/20 03:33:08;;;;;;;36.22;18.65;;;;;;;;;;6036441;23;20231;-92
2023/10/20 03:36:13;;;;;;;36.75;19.98;;;;;;;;;;6036907;23;20303;-93
2023/10/20 03:39:20;;;;;;;40.53;20.23;;;;;;;;;;6034673;23;20175;-92
2023/10/20 03:42:25;;;;;;;41.25;20.85;;;;;;;;;;6055469;23;20212;-94
2023/10/20 03:45:39;;;;;;;42.85;20.75;;;;;;;;;;6038775;23;20576;-92
2023/10/20 03:48:45;;;;;;;38.85;20.85;;;;;;;;;;6038830;23;20230;-91
2023/10/20 03:51:51;;;;;;;39.78;20.65;;;;;;;;;;6039506;23;20192;-92
2023/10/20 03:54:56;;;;;;;43.03;20.50;;;;;;;;;;6054508;23;20186;-93
2023/10/20 03:58:03;;;;;;;43.28;20.20;;;;;;;;;;6039271;23;20232;-95
2023/10/20 04:01:11;;;;;;;40.03;19.13;;;;;;;;;;6039109;23;20179;-92
2023/10/20 04:04:17;;;;;;;40.88;20.38;;;;;;;;;;6039005;23;20170;-93
2023/10/20 04:07:24;;;;;;;39.45;20.90;;;;;;;;;;6037047;23;20175;-94
2023/10/20 04:10:29;;;;;;;39.95;21.02;;;;;;;;;;6037412;23;20221;-93
2023/10/20 04:13:35;;;;;;;48.17;21.73;;;;;;;;;;6037628;23;20174;-93
2023/10/20 04:16:42;;;;;;;42.45;20.77;;;;;;;;;;6036531;23;20200;-94
2023/10/20 04:19:49;;;;;;;42.38;22.30;;;;;;;;;;6038160;23;20175;-95
2023/10/20 04:22:54;;;;;;;42.55;21.88;;;;;;;;;;6040795;23;20164;-92
2023/10/20 04:26:00;;;;;;;39.55;20.33;;;;;;;;;;6042454;23;20155;-94
2023/10/20 04:29:23;;;;;;;42.58;21.13;;;;;;;;;;6055351;23;20163;-95
2023/10/20 04:43:35;;;;;;;48.03;22.05;;;;;;;;;;6036221;23;20175;-91
2023/10/20 04:57:18;;;;;;;45.03;21.90;;;;;;;;;;6036772;23;20171;-93
2023/10/20 05:03:45;;;;;;;45.13;22.65;;;;;;;;;;6039086;23;20154;-92
2023/10/20 05:06:58;;;;;;;45.03;22.70;;;;;;;;;;6055550;23;20177;-94
2023/10/20 05:10:04;;;;;;;47.00;22.05;;;;;;;;;;6054450;23;20254;-92
2023/10/20 05:13:11;;;;;;;48.20;22.75;;;;;;;;;;6054209;23;20175;-92
2023/10/20 05:16:16;;;;;;;47.13;22.92;;;;;;;;;;6055099;23;20200;-94
2023/10/20 05:19:21;;;;;;;52.42;24.13;;;;;;;;;;6055070;23;20186;-92
2023/10/20 05:25:48;;;;;;;48.72;24.42;;;;;;;;;;6054750;23;20206;-92
2023/10/20 05:28:56;;;;;;;46.08;23.50;;;;;;;;;;6057483;23;20194;-91
2023/10/20 05:32:02;;;;;;;48.45;23.33;;;;;;;;;;6057639;23;20174;-92
2023/10/20 05:35:09;;;;;;;46.88;22.98;;;;;;;;;;6041755;23;20184;-91
2023/10/20 05:38:16;;;;;;;44.83;23.00;;;;;;;;;;6044864;23;20182;-91
2023/10/20 05:41:22;;;;;;;47.50;23.73;;;;;;;;;;6042519;23;20184;-91
2023/10/20 05:44:32;;;;;;;48.80;23.70;;;;;;;;;;6056689;23;20521;-90
2023/10/20 05:47:45;;;;;;;44.67;23.58;;;;;;;;;;6057257;23;20232;-92
2023/10/20 05:50:57;;;;;;;51.67;23.73;;;;;;;;;;6056643;23;20151;-91
2023/10/20 05:54:04;;;;;;;49.03;22.35;;;;;;;;;;6056956;23;20195;-91
2023/10/20 05:57:10;;;;;;;46.30;23.52;;;;;;;;;;6059762;23;20197;-92
2023/10/20 06:03:35;;;;;;;49.65;22.80;;;;;;;;;;6041458;23;20186;-91
2023/10/20 06:06:40;;;;;;;41.92;23.10;;;;;;;;;;6040951;23;20175;-94
2023/10/20 06:09:50;;;;;;;48.28;23.52;;;;;;;;;;6060042;23;20184;-92
2023/10/20 06:16:16;;;;;;;41.88;21.95;;;;;;;;;;6058940;23;20276;-91
2023/10/20 06:19:21;;;;;;;45.10;22.42;;;;;;;;;;6039634;23;20186;-91
2023/10/20 06:22:27;;;;;;;49.30;22.92;;;;;;;;;;6038258;23;20179;-93
2023/10/20 06:25:35;;;;;;;45.45;23.77;;;;;;;;;;6038866;23;20151;-93
2023/10/20 06:28:41;;;;;;;46.22;23.15;;;;;;;;;;6038612;23;20163;-91
2023/10/20 06:31:48;;;;;;;51.20;23.38;;;;;;;;;;6054392;23;20195;-96
2023/10/20 06:34:59;;;;;;;48.35;22.98;;;;;;;;;;6056625;23;20227;-90
2023/10/20 06:38:14;;;;;;;56.13;25.70;;;;;;;;;;6058300;23;20195;-92
2023/10/20 06:41:22;;;;;;;47.33;23.35;;;;;;;;;;6057077;23;20488;-91
2023/10/20 06:44:32;;;;;;;47.08;23.45;;;;;;;;;;6038944;23;20216;-89
2023/10/20 06:47:39;;;;;;;47.70;23.73;;;;;;;;;;6039779;23;20191;-92
2023/10/20 06:50:44;;;;;;;44.72;23.20;;;;;;;;;;6054892;23;20175;-91
2023/10/20 06:53:50;;;;;;;45.95;23.30;;;;;;;;;;6057092;23;20270;-91
2023/10/20 06:56:57;;;;;;;47.55;22.77;;;;;;;;;;6038654;23;20243;-93
2023/10/20 07:00:03;;;;;;;47.13;22.88;;;;;;;;;;6055370;23;20203;-91
2023/10/20 07:03:09;;;;;;;42.65;23.23;;;;;;;;;;6060159;23;20272;-92
2023/10/20 07:06:15;;;;;;;51.35;23.60;;;;;;;;;;6064000;23;20604;-92
2023/10/20 07:09:23;;;;;;;44.95;22.05;;;;;;;;;;6045091;23;20175;-92
2023/10/20 07:12:30;;;;;;;46.05;23.02;;;;;;;;;;6055475;23;20167;-92
2023/10/20 07:15:36;;;;;;;49.03;23.80;;;;;;;;;;6056423;23;20201;-92
2023/10/20 07:18:41;;;;;;;43.50;23.35;;;;;;;;;;6039040;23;20199;-94
2023/10/20 07:21:48;;;;;;;46.55;24.13;;;;;;;;;;6056364;23;20224;-92
2023/10/20 07:24:55;;;;;;;44.40;22.77;;;;;;;;;;6057840;23;20226;-93
2023/10/20 07:31:22;;;;;;;44.00;23.25;;;;;;;;;;6043637;23;20235;-92
2023/10/20 07:37:48;;;;;;;48.00;23.98;;;;;;;;;;6060413;23;20174;-93
2023/10/20 07:40:55;;;;;;;51.45;23.08;;;;;;;;;;6044470;23;20203;-91
2023/10/20 07:47:24;;;;;;;42.80;22.38;;;;;;;;;;6060497;23;20186;-92
2023/10/20 08:28:40;;;;;;;41.55;21.33;;;;;;;;;;6032836;23;20223;-93
2023/10/20 08:31:46;;;;;;;42.55;21.40;;;;;;;;;;6070793;23;20170;-91
2023/10/20 08:34:53;;;;;;;39.58;20.88;;;;;;;;;;6070203;23;20170;-94
2023/10/20 08:38:00;;;;;;;42.20;20.65;;;;;;;;;;6087722;23;20199;-93
2023/10/20 08:41:10;;;;;;;43.20;22.10;;;;;;;;;;6070617;23;20216;-93
2023/10/20 08:44:24;;;;;;;42.83;21.40;;;;;;;;;;6087434;23;20154;-91
2023/10/20 08:47:30;;;;;;;42.63;21.98;;;;;;;;;;6085120;23;20301;-92
2023/10/20 08:50:37;;;;;;;45.22;22.27;;;;;;;;;;6085735;23;20199;-91
2023/10/20 08:53:43;;;;;;;42.38;21.75;;;;;;;;;;6087014;23;20205;-90
2023/10/20 08:56:49;;;;;;;42.65;21.45;;;;;;;;;;6070089;23;20171;-92
2023/10/20 09:00:01;;;;;;;45.72;20.60;;;;;;;;;;6087122;23;20190;-93
2023/10/20 09:03:07;;;;;;;42.38;22.17;;;;;;;;;;6071056;23;20610;-93
2023/10/20 09:06:15;;;;;;;39.22;22.20;;;;;;;;;;6087669;23;20158;-92
2023/10/20 09:09:22;;;;;;;43.05;20.55;;;;;;;;;;6086439;23;20171;-92
2023/10/20 09:12:34;;;;;;;43.95;21.98;;;;;;;;;;6087249;23;20235;-92
2023/10/20 09:15:41;;;;;;;39.38;20.35;;;;;;;;;;6086774;23;20171;-91
2023/10/20 09:18:47;;;;;;;40.95;20.55;;;;;;;;;;6085247;23;20703;-93
2023/10/20 09:21:57;;;;;;;38.28;19.77;;;;;;;;;;6084704;23;20163;-91
2023/10/20 09:25:03;;;;;;;37.42;20.27;;;;;;;;;;6084214;23;20218;-93
2023/10/20 09:28:09;;;;;;;43.60;20.65;;;;;;;;;;6082641;23;20246;-93
2023/10/20 09:31:17;;;;;;;39.38;21.30;;;;;;;;;;6084399;23;20204;-92
2023/10/20 09:34:23;;;;;;;42.67;20.98;;;;;;;;;;6084830;23;20174;-92
2023/10/20 09:37:31;;;;;;;45.05;21.50;;;;;;;;;;6085202;23;20200;-90
2023/10/20 09:40:37;;;;;;;41.25;21.50;;;;;;;;;;6083510;23;20318;-93
2023/10/20 09:43:48;;;;;;;50.25;22.55;;;;;;;;;;6081550;23;20223;-92
2023/10/20 09:46:57;;;;;;;38.65;20.45;;;;;;;;;;6068585;23;20175;-91
2023/10/20 09:50:05;;;;;;;37.90;20.50;;;;;;;;;;6067133;23;20191;-92
2023/10/20 09:53:11;;;;;;;41.70;20.88;;;;;;;;;;6068772;23;20281;-94
2023/10/20 09:56:16;;;;;;;41.67;20.73;;;;;;;;;;6084922;23;20192;-93
2023/10/20 09:59:23;;;;;;;39.47;21.13;;;;;;;;;;6085784;23;20191;-92
2023/10/20 10:02:34;;;;;;;39.53;20.05;;;;;;;;;;6068973;23;20227;-91
2023/10/20 10:05:42;;;;;;;43.53;20.95;;;;;;;;;;6084741;23;20172;-91
2023/10/20 10:08:49;;;;;;;39.20;20.13;;;;;;;;;;6086733;23;20166;-92
2023/10/20 10:11:56;;;;;;;43.25;20.65;;;;;;;;;;6070679;23;20166;-92
2023/10/20 10:15:06;;;;;;;39.60;20.80;;;;;;;;;;6087587;23;20167;-91
2023/10/20 10:18:15;;;;;;;35.58;19.42;;;;;;;;;;6087901;23;20223;-92
2023/10/20 10:21:36;;;;;;;34.88;18.73;;;;;;;;;;6087785;23;20174;-93
2023/10/20 10:24:50;;;;;;;40.50;20.65;;;;;;;;;;6087294;23;20166;-93
2023/10/20 10:27:55;;;;;;;38.25;19.00;;;;;;;;;;6085309;23;20627;-92
2023/10/20 10:31:01;;;;;;;36.50;19.17;;;;;;;;;;6087494;23;20170;-91
2023/10/20 10:34:09;;;;;;;40.88;19.63;;;;;;;;;;6089837;23;20199;-91
2023/10/20 10:37:17;;;;;;;35.42;19.33;;;;;;;;;;6090328;23;20162;-92
2023/10/20 10:43:53;;;;;;;32.45;18.33;;;;;;;;;;6071360;23;20167;-92
2023/10/20 10:46:59;;;;;;;36.35;18.45;;;;;;;;;;6089658;23;20192;-92
2023/10/20 10:53:40;;;;;;;38.85;16.75;;;;;;;;;;6073278;23;20178;-93
2023/10/20 10:56:47;;;;;;;33.00;16.98;;;;;;;;;;6088319;23;20215;-91
2023/10/20 10:59:52;;;;;;;37.78;18.55;;;;;;;;;;6087245;23;20274;-91
2023/10/20 11:02:58;;;;;;;36.80;19.45;;;;;;;;;;6068993;23;20215;-91
2023/10/20 11:06:04;;;;;;;49.13;24.85;;;;;;;;;;6087985;23;20195;-92
2023/10/20 11:09:13;;;;;;;31.40;17.75;;;;;;;;;;6084528;23;20265;-92
2023/10/20 11:12:18;;;;;;;33.70;17.80;;;;;;;;;;6082917;23;20162;-91
2023/10/20 11:18:46;;;;;;;40.58;17.35;;;;;;;;;;6066248;23;20171;-91
2023/10/20 11:21:52;;;;;;;32.10;18.13;;;;;;;;;;6082226;23;20223;-92
2023/10/20 11:25:00;;;;;;;38.83;18.17;;;;;;;;;;6082885;23;20634;-91
2023/10/20 11:28:06;;;;;;;31.77;15.57;;;;;;;;;;6085298;23;20179;-94
2023/10/20 11:31:13;;;;;;;33.00;15.88;;;;;;;;;;6085383;23;20226;-90
2023/10/20 11:34:18;;;;;;;32.65;17.60;;;;;;;;;;6087611;23;20175;-91
2023/10/20 11:37:25;;;;;;;32.33;17.45;;;;;;;;;;6087757;23;20216;-91
2023/10/20 11:40:33;;;;;;;38.28;18.10;;;;;;;;;;6086300;23;20234;-91
2023/10/20 11:43:40;;;;;;;34.22;17.80;;;;;;;;;;6086098;23;20211;-91
2023/10/20 11:46:47;;;;;;;32.20;16.77;;;;;;;;;;6067910;23;20173;-91
2023/10/20 11:49:54;;;;;;;29.20;15.63;;;;;;;;;;6086300;23;20222;-91
2023/10/20 11:56:22;;;;;;;41.45;19.05;;;;;;;;;;6069037;23;20171;-93
2023/10/20 12:03:18;;;;;;;29.73;16.02;;;;;;;;;;6088294;23;20167;-92
2023/10/20 12:06:23;;;;;;;31.50;16.13;;;;;;;;;;6069234;23;20166;-91
2023/10/20 12:09:29;;;;;;;32.78;17.30;;;;;;;;;;6085092;23;20227;-91
2023/10/20 12:12:38;;;;;;;34.58;19.27;;;;;;;;;;6086386;23;20174;-94
2023/10/20 12:15:44;;;;;;;32.97;16.40;;;;;;;;;;6068415;23;20243;-92
2023/10/20 12:18:51;;;;;;;34.65;15.45;;;;;;;;;;6083893;23;20174;-93
2023/10/20 12:22:02;;;;;;;27.95;14.95;;;;;;;;;;6084892;23;20166;-92
2023/10/20 12:25:08;;;;;;;24.58;13.35;;;;;;;;;;6083734;23;20212;-92
2023/10/20 12:28:16;;;;;;;22.50;11.90;;;;;;;;;;6085480;23;20211;-94
2023/10/20 12:31:22;;;;;;;22.60;11.30;;;;;;;;;;6068022;23;20173;-93
2023/10/20 12:34:27;;;;;;;20.73;11.38;;;;;;;;;;6082797;23;20224;-92
2023/10/20 12:37:34;;;;;;;32.40;14.95;;;;;;;;;;6086992;23;20150;-92
2023/10/20 12:40:40;;;;;;;21.75;12.32;;;;;;;;;;6084833;23;20266;-92
2023/10/20 12:44:06;;;;;;;22.33;11.10;;;;;;;;;;6067760;23;20175;-92
2023/10/20 12:50:32;;;;;;;23.42;12.93;;;;;;;;;;6067941;23;20248;-92
2023/10/20 12:53:38;;;;;;;31.02;15.48;;;;;;;;;;6084214;23;20674;-94
2023/10/20 12:56:43;;;;;;;29.23;13.00;;;;;;;;;;6084938;23;20205;-92
2023/10/20 12:59:48;;;;;;;23.90;13.55;;;;;;;;;;6086080;23;20190;-92
2023/10/20 13:02:55;;;;;;;24.00;12.65;;;;;;;;;;6083720;23;20174;-92
2023/10/20 13:06:00;;;;;;;22.25;12.52;;;;;;;;;;6068965;23;20180;-93
2023/10/20 13:09:07;;;;;;;21.33;11.00;;;;;;;;;;6081408;23;20239;-93
2023/10/20 13:12:12;;;;;;;18.73;10.32;;;;;;;;;;6084692;23;20225;-92
2023/10/20 13:15:19;;;;;;;19.58;10.32;;;;;;;;;;6082711;23;20166;-94
2023/10/20 13:18:28;;;;;;;18.33;10.05;;;;;;;;;;6080986;23;20219;-93
2023/10/20 13:21:34;;;;;;;14.43;8.88;;;;;;;;;;6086232;23;20691;-93
2023/10/20 13:24:41;;;;;;;15.38;8.48;;;;;;;;;;6067958;23;20233;-94
2023/10/20 13:27:46;;;;;;;27.30;9.30;;;;;;;;;;6068204;23;20158;-94
2023/10/20 13:30:51;;;;;;;23.63;11.25;;;;;;;;;;6065789;23;20222;-94
2023/10/20 13:33:59;;;;;;;16.08;7.68;;;;;;;;;;6081962;23;20274;-91
2023/10/20 13:37:06;;;;;;;10.75;4.88;;;;;;;;;;6067380;23;20634;-93
2023/10/20 13:40:14;;;;;;;12.20;5.65;;;;;;;;;;6069387;23;20291;-94
2023/10/20 13:43:20;;;;;;;10.30;5.50;;;;;;;;;;6066831;23;20496;-93
2023/10/20 13:50:02;;;;;;;16.83;7.28;;;;;;;;;;6072685;23;20162;-94
2023/10/20 13:53:10;;;;;;;15.70;6.35;;;;;;;;;;6087372;23;20175;-95
2023/10/20 13:56:17;;;;;;;34.03;14.27;;;;;;;;;;6068851;23;20618;-91
2023/10/20 13:59:22;;;;;;;13.25;6.75;;;;;;;;;;6084471;23;20614;-94
2023/10/20 14:02:28;;;;;;;12.15;5.82;;;;;;;;;;6068341;23;20158;-91
2023/10/20 14:09:14;;;;;;;8.88;4.35;;;;;;;;;;6087995;23;20171;-93
2023/10/20 14:12:27;;;;;;;9.18;4.53;;;;;;;;;;6087687;23;20170;-94
2023/10/20 14:15:33;;;;;;;9.73;4.22;;;;;;;;;;6069831;23;20158;-90
2023/10/20 14:18:37;;;;;;;10.40;3.95;;;;;;;;;;6085824;23;20713;-94
2023/10/20 14:21:43;;;;;;;9.43;4.90;;;;;;;;;;6069966;23;20202;-93
2023/10/20 14:24:49;;;;;;;9.57;4.80;;;;;;;;;;6069358;23;20175;-93
2023/10/20 14:28:11;;;;;;;10.02;5.22;;;;;;;;;;6074321;23;20178;-91
2023/10/20 14:34:54;;;;;;;10.55;5.15;;;;;;;;;;6073069;23;20211;-93
2023/10/20 14:41:24;;;;;;;8.90;4.95;;;;;;;;;;6076072;23;20218;-93
2023/10/20 14:47:56;;;;;;;13.60;5.40;;;;;;;;;;6075808;23;20686;-94
2023/10/20 14:51:20;;;;;;;11.73;6.20;;;;;;;;;;6092688;23;20162;-95
2023/10/20 16:09:25;;;;;;;11.30;6.60;;;;;;;;;;6055095;23;20184;-92
2023/10/20 16:12:31;;;;;;;14.90;7.50;;;;;;;;;;6031527;23;20237;-89
2023/10/20 16:15:37;;;;;;;12.35;7.15;;;;;;;;;;6031495;23;20160;-91
2023/10/20 16:18:42;;;;;;;15.57;8.35;;;;;;;;;;6030318;23;20199;-92
2023/10/20 16:21:50;;;;;;;13.73;7.40;;;;;;;;;;6031102;23;20167;-94
2023/10/20 16:24:55;;;;;;;13.63;7.82;;;;;;;;;;6033362;23;20210;-92
2023/10/20 16:28:02;;;;;;;13.93;7.15;;;;;;;;;;6032087;23;20167;-92
2023/10/20 16:31:15;;;;;;;17.77;8.30;;;;;;;;;;6032896;23;20167;-92
2023/10/20 16:34:22;;;;;;;15.25;7.97;;;;;;;;;;6027894;23;20526;-93
2023/10/20 16:37:33;;;;;;;18.38;9.82;;;;;;;;;;6030412;23;20167;-92
2023/10/20 16:40:40;;;;;;;16.58;7.97;;;;;;;;;;6031594;23;20200;-92
2023/10/20 16:43:56;;;;;;;14.60;8.32;;;;;;;;;;6030205;23;20167;-90
2023/10/20 16:47:02;;;;;;;18.38;8.35;;;;;;;;;;6030454;23;20250;-91
2023/10/20 16:50:08;;;;;;;16.80;8.23;;;;;;;;;;6031588;23;20175;-91
2023/10/20 16:53:20;;;;;;;17.13;9.32;;;;;;;;;;6031783;23;20184;-93
2023/10/20 16:56:28;;;;;;;17.05;9.13;;;;;;;;;;6031864;23;20173;-93
2023/10/20 16:59:33;;;;;;;17.45;10.00;;;;;;;;;;6031571;23;20209;-90
2023/10/20 17:02:44;;;;;;;15.75;8.73;;;;;;;;;;6032675;23;20152;-91
2023/10/20 17:05:51;;;;;;;17.40;9.88;;;;;;;;;;6032400;23;20191;-93
2023/10/20 17:08:58;;;;;;;16.67;9.82;;;;;;;;;;6033302;23;20179;-93
2023/10/20 17:43:17;;;;;;;17.90;9.23;;;;;;;;;;6042770;23;20204;-94
2023/10/20 17:46:25;;;;;;;17.08;10.15;;;;;;;;;;6068781;23;20163;-90
2023/10/20 17:49:34;;;;;;;16.67;8.52;;;;;;;;;;6073126;23;20186;-93
2023/10/20 17:56:09;;;;;;;20.67;10.95;;;;;;;;;;6073964;23;20176;-92
2023/10/20 17:59:18;;;;;;;16.75;9.32;;;;;;;;;;6090036;23;20253;-91
2023/10/20 18:02:29;;;;;;;20.35;11.80;;;;;;;;;;6090891;23;20174;-92
2023/10/20 18:05:38;;;;;;;20.95;10.07;;;;;;;;;;6089151;23;20167;-92
2023/10/20 18:08:44;;;;;;;29.52;10.85;;;;;;;;;;6068995;23;20170;-94
2023/10/20 18:11:51;;;;;;;20.52;11.18;;;;;;;;;;6069957;23;20219;-94
2023/10/20 18:15:10;;;;;;;21.45;12.30;;;;;;;;;;6069770;23;20175;-94
2023/10/20 18:18:19;;;;;;;22.05;12.30;;;;;;;;;;6073097;23;20225;-94
2023/10/20 18:21:30;;;;;;;18.75;9.45;;;;;;;;;;6070689;23;20183;-91
2023/10/20 18:24:36;;;;;;;17.33;9.80;;;;;;;;;;6086455;23;20191;-92
2023/10/20 18:27:43;;;;;;;20.17;10.95;;;;;;;;;;6088405;23;20171;-92
2023/10/20 18:31:03;;;;;;;21.00;10.60;;;;;;;;;;6069259;23;20307;-92
2023/10/20 18:34:21;;;;;;;21.92;11.95;;;;;;;;;;6071329;23;20170;-92
2023/10/20 18:37:28;;;;;;;18.48;10.57;;;;;;;;;;6072023;23;20170;-90
2023/10/20 20:15:40;;;;;;;21.10;9.73;;;;;;;;;;6059562;23;20183;-93
2023/10/20 20:18:46;;;;;;;20.02;9.30;;;;;;;;;;6043705;23;20222;-92
2023/10/20 20:21:51;;;;;;;19.02;11.13;;;;;;;;;;6040925;23;20171;-89
2023/10/20 20:24:57;;;;;;;29.42;13.15;;;;;;;;;;6058295;23;20159;-91
2023/10/20 20:28:03;;;;;;;22.02;12.18;;;;;;;;;;6058142;23;20175;-91
2023/10/20 20:31:10;;;;;;;17.58;9.93;;;;;;;;;;6042384;23;20220;-91
2023/10/20 20:34:16;;;;;;;23.40;11.50;;;;;;;;;;6056841;23;20171;-91
2023/10/20 20:37:21;;;;;;;22.13;11.88;;;;;;;;;;6057850;23;20171;-91
2023/10/20 20:40:27;;;;;;;21.02;11.15;;;;;;;;;;6059057;23;20206;-92
2023/10/20 20:43:34;;;;;;;21.15;10.80;;;;;;;;;;6060180;23;20180;-90
2023/10/20 20:46:41;;;;;;;23.73;12.75;;;;;;;;;;6058610;23;20179;-90
2023/10/20 20:49:47;;;;;;;25.60;12.05;;;;;;;;;;6058053;23;20163;-92
2023/10/20 20:52:52;;;;;;;17.85;10.57;;;;;;;;;;6058309;23;20163;-92
2023/10/20 20:55:58;;;;;;;21.85;10.55;;;;;;;;;;6058541;23;20175;-94
2023/10/20 20:59:04;;;;;;;19.85;10.50;;;;;;;;;;6040136;23;20183;-91
2023/10/20 21:02:12;;;;;;;18.95;11.25;;;;;;;;;;6057595;23;20221;-93
2023/10/20 21:05:21;;;;;;;23.20;12.00;;;;;;;;;;6055941;23;20166;-91
2023/10/20 21:08:27;;;;;;;19.52;11.52;;;;;;;;;;6058370;23;20219;-92
2023/10/20 21:55:29;;;;;;;27.38;11.43;;;;;;;;;;6058622;23;20215;-93
2023/10/20 21:58:37;;;;;;;18.25;10.25;;;;;;;;;;6070660;23;20178;-92
2023/10/20 22:01:43;;;;;;;18.48;9.98;;;;;;;;;;6070096;23;20186;-93
2023/10/20 22:04:49;;;;;;;18.30;10.32;;;;;;;;;;6071033;23;20218;-93
2023/10/20 22:07:55;;;;;;;28.02;15.10;;;;;;;;;;6070094;23;20166;-92
2023/10/20 22:11:04;;;;;;;26.08;13.82;;;;;;;;;;6067367;23;20350;-91
2023/10/20 22:14:10;;;;;;;20.23;10.95;;;;;;;;;;6068813;23;20167;-93
2023/10/20 22:17:15;;;;;;;20.55;11.02;;;;;;;;;;6068532;23;20171;-93
2023/10/20 22:20:21;;;;;;;20.48;10.60;;;;;;;;;;6069613;23;20250;-94
2023/10/20 22:23:26;;;;;;;17.77;9.63;;;;;;;;;;6066814;23;20190;-92
2023/10/20 22:26:34;;;;;;;16.95;10.13;;;;;;;;;;6068490;23;20218;-93
2023/10/20 22:29:39;;;;;;;18.85;9.93;;;;;;;;;;6068284;23;20183;-91
2023/10/20 22:32:44;;;;;;;21.75;10.50;;;;;;;;;;6067773;23;20254;-92
2023/10/20 22:35:50;;;;;;;17.08;9.43;;;;;;;;;;6066943;23;20234;-94
2023/10/20 22:38:56;;;;;;;25.65;10.70;;;;;;;;;;6066052;23;20162;-91
2023/10/20 22:42:03;;;;;;;20.70;11.00;;;;;;;;;;6049364;23;20162;-92
2023/10/20 22:45:10;;;;;;;17.17;10.32;;;;;;;;;;6068362;23;20203;-92
2023/10/20 22:48:18;;;;;;;16.00;9.60;;;;;;;;;;6068073;23;20181;-92
2023/10/20 22:51:24;;;;;;;23.83;11.45;;;;;;;;;;6067456;23;20174;-91
2023/10/20 22:54:30;;;;;;;20.35;10.13;;;;;;;;;;6066835;23;20170;-92
2023/10/20 22:57:41;;;;;;;19.80;9.75;;;;;;;;;;6067844;23;20184;-91
2023/10/20 23:00:47;;;;;;;25.70;13.30;;;;;;;;;;6066555;23;20206;-92
2023/10/20 23:03:53;;;;;;;19.15;11.70;;;;;;;;;;6068149;23;20170;-92
2023/10/20 23:06:59;;;;;;;30.17;16.48;;;;;;;;;;6069799;23;20211;-92
2023/10/20 23:10:09;;;;;;;48.80;22.92;;;;;;;;;;6066280;23;20171;-92
2023/10/20 23:13:16;;;;;;;82.43;41.22;;;;;;;;;;6066070;23;20155;-92
2023/10/20 23:16:21;;;;;;;21.35;10.52;;;;;;;;;;6065147;23;20171;-92
2023/10/20 23:19:27;;;;;;;18.02;9.18;;;;;;;;;;6064528;23;20215;-93
2023/10/20 23:22:31;;;;;;;18.27;9.38;;;;;;;;;;6066906;23;20170;-92
2023/10/20 23:25:36;;;;;;;23.77;10.20;;;;;;;;;;6064795;23;20165;-93
2023/10/20 23:28:43;;;;;;;18.40;9.90;;;;;;;;;;6066693;23;20161;-92
2023/10/20 23:31:48;;;;;;;23.70;11.48;;;;;;;;;;6065166;23;20175;-93
2023/10/20 23:34:54;;;;;;;16.88;9.43;;;;;;;;;;6065614;23;20182;-93
2023/10/20 23:37:59;;;;;;;16.80;9.25;;;;;;;;;;6065408;23;20637;-93
2023/10/20 23:41:04;;;;;;;30.00;15.70;;;;;;;;;;6064239;23;20197;-93
2023/10/20 23:44:11;;;;;;;16.05;8.40;;;;;;;;;;6063728;23;20163;-93
2023/10/20 23:47:16;;;;;;;16.33;7.88;;;;;;;;;;6065092;23;20301;-92
2023/10/20 23:50:21;;;;;;;16.33;8.23;;;;;;;;;;6067002;23;20174;-91
2023/10/20 23:53:26;;;;;;;15.52;8.60;;;;;;;;;;6066071;23;20175;-94
2023/10/20 23:56:31;;;;;;;15.02;8.80;;;;;;;;;;6065824;23;20202;-93
2023/10/20 23:59:38;;;;;;;18.48;8.02;;;;;;;;;;6064106;23;20186;-93
